• Join FlightAware (Why Join?)
  • Login
  • US Flag 
02:59PM EDT


 

Airport Tracker/Info


-or-


 

Live Flight TrackerFlight Track Log ✈ KFS44 ✈ 09-May-2013 ✈ CYHM - KYIP

Flight Track Log - Related Links

Times and Time Zones

All times are in EDT time to prevent confusion due to time zone crossing. See the KFS44 flight status page for this flight to view local times or setup timezone preferences in your user account.

Time Position Orientation Groundspeed Altitude Reporting Facility
EDT Latitude Longitude Course Direction KTS MPH feet Rate Location/Type
10:23PM 43.1167 -79.9500 252° West 200 230 2,900  Level Toronto Center
10:24PM 43.1000 -80.0500 257° West 270 311 5,500 2,820 Climbing Toronto Center
10:25PM 43.0833 -80.1333 255° West 270 311 8,600 2,700 Climbing Toronto Center
10:26PM 43.0667 -80.2500 259° West 280 322 10,900 2,580 Climbing Toronto Center
10:27PM 43.0500 -80.3667 259° West 310 357 13,800 2,160 Climbing Toronto Center
10:28PM 43.1558 -80.0066 252° West  Level Estimated
10:28PM 43.0333 -80.5000 260° West 310 357 15,300  Level Toronto Center
10:29PM 43.0167 -80.6167 259° West 350 403 15,900 300 Climbing Toronto Center
10:30PM 43.0000 -80.7667 261° West 390 449 15,900  Level Toronto Center
10:31PM 42.9667 -80.9167 253° West 410 472 15,900  Level Toronto Center
10:32PM 42.9500 -81.0667 261° West 390 449 15,900  Level Toronto Center
10:33PM 42.9500 -81.2000 270° West 380 437 16,000  Climbing Toronto Center
10:34PM 42.9333 -81.3333 260° West 380 437 16,000  Level Toronto Center
10:35PM 42.9000 -81.5000 255° West 390 449 16,000 -120 Level Toronto Center
10:36PM 42.8667 -81.6333 251° West 390 449 15,800 -420 Descending Toronto Center
10:37PM 42.8628 -81.7417 267° West 376 433 15,300 -1,260 Descending Cleveland Center
10:38PM 42.8444 -81.8942 261° West 371 427 13,600 -1,680 Descending Cleveland Center
10:39PM 42.8158 -82.0294 254° West 376 433 12,000 -1,260 Descending Cleveland Center
10:40PM 42.7911 -82.1647 256° West 376 433 11,100 -960 Descending Cleveland Center
10:41PM 42.7642 -82.2969 255° West 376 433 10,100 -600 Descending Cleveland Center
10:42PM 42.7436 -82.4094 256° West 350 403 9,900 -1,560 Descending Cleveland Center
10:43PM 42.7253 -82.5108 256° West 305 351 7,000 -2,520 Descending Cleveland Center
10:43PM 42.7122 -82.5556 248° West 270 311 6,200 -1,740 Descending Cleveland Center
10:44PM 42.6783 -82.5828 211° Southwest 256 295 5,300 -840 Descending Cleveland Center
10:45PM 42.6475 -82.6692 244° Southwest 261 300 5,000 -240 Descending Cleveland Center
10:46PM 42.6292 -82.7675 256° West 261 300 4,900 -60 Descending Cleveland Center
10:47PM 42.6108 -82.8569 254° West 268 308 4,900  Level Cleveland Center
10:48PM 42.5897 -82.9633 255° West 266 306 4,900 -240 Level Cleveland Center
10:49PM 42.5692 -83.0586 254° West 266 306 4,500 -540 Descending Cleveland Center
10:50PM 42.5564 -83.1567 260° West 250 288 3,900 -660 Descending Cleveland Center
10:51PM 42.5231 -83.2483 244° Southwest 247 284 3,100 -540 Descending Cleveland Center
10:52PM 42.4800 -83.3056 224° Southwest 244 281 2,900 -60 Descending Cleveland Center
10:53PM 42.4306 -83.3711 224° Southwest 245 282 3,000 60 Climbing Cleveland Center
10:54PM 42.3853 -83.4281 223° Southwest 211 243 3,100  Climbing Cleveland Center
10:55PM 42.3406 -83.4711 215° Southwest 184 212 3,100 -360 Level Cleveland Center
10:56PM 42.2861 -83.4769 185° South 188 216 2,400 -1,020 Descending Cleveland Center
10:57PM 42.2561 -83.5092 218° Southwest 139 160 1,200 -1,320 Descending Cleveland Center
10:59PM 42.2333 -83.5167 217° Southwest  Level FlightAware Approximate